createdAt,value
2022-12-15T00:02:35.320Z,138.68
2022-12-15T00:05:21.124Z,131.65
2022-12-15T00:08:06.320Z,129.48
2022-12-15T00:10:51.491Z,128.43
2022-12-15T00:13:36.253Z,138.85
2022-12-15T00:16:21.391Z,123.30
2022-12-15T00:19:06.632Z,130.35
2022-12-15T00:21:51.674Z,129.15
2022-12-15T00:24:37.259Z,119.07
2022-12-15T00:27:22.933Z,123.18
2022-12-15T00:30:08.683Z,128.95
2022-12-15T00:32:53.774Z,131.27
2022-12-15T00:35:39.120Z,128.90
2022-12-15T00:38:33.599Z,121.28
2022-12-15T00:41:01.355Z,117.65
2022-12-15T00:43:30.150Z,135.77
2022-12-15T00:46:16.162Z,125.45
2022-12-15T00:48:43.381Z,136.98
2022-12-15T00:51:10.434Z,127.95
2022-12-15T00:53:55.896Z,119.68
2022-12-15T00:56:41.829Z,128.50
2022-12-15T00:59:27.642Z,129.25
2022-12-15T01:02:12.704Z,125.30
2022-12-15T01:04:57.999Z,133.00
2022-12-15T01:07:43.311Z,125.45
2022-12-15T01:10:28.383Z,127.32
2022-12-15T01:13:13.529Z,123.07
2022-12-15T01:15:59.351Z,121.88
2022-12-15T01:18:45.065Z,129.10
2022-12-15T01:21:16.381Z,128.43
2022-12-15T01:23:43.115Z,118.63
2022-12-15T01:26:09.859Z,126.05
2022-12-15T01:28:36.752Z,122.22
2022-12-15T01:31:11.786Z,121.30
2022-12-15T01:33:39.711Z,121.18
2022-12-15T01:36:06.683Z,129.50
2022-12-15T01:38:33.364Z,120.63
2022-12-15T01:41:03.495Z,119.72
2022-12-15T01:43:35.492Z,125.45
2022-12-15T01:46:11.392Z,122.55
2022-12-15T01:48:46.131Z,130.30
2022-12-15T01:51:15.725Z,134.88
2022-12-15T01:54:08.393Z,122.53
2022-12-15T01:56:39.358Z,126.35
2022-12-15T01:59:09.633Z,122.78
2022-12-15T02:01:36.447Z,129.07
2022-12-15T02:04:03.833Z,130.63
2022-12-15T02:06:30.740Z,117.30
2022-12-15T02:09:00.431Z,119.55
2022-12-15T02:11:37.471Z,127.28
2022-12-15T02:14:08.753Z,115.38
2022-12-15T02:16:47.706Z,128.38
2022-12-15T02:19:56.460Z,128.52
2022-12-15T02:22:47.965Z,132.40
2022-12-15T02:25:33.107Z,122.25
2022-12-15T02:28:10.435Z,119.15
2022-12-15T02:30:37.017Z,128.27
2022-12-15T02:33:28.177Z,126.13
2022-12-15T02:36:00.189Z,127.90
2022-12-15T02:38:38.547Z,121.68
2022-12-15T02:41:06.546Z,125.53
2022-12-15T02:43:37.279Z,123.38
2022-12-15T02:46:35.536Z,133.32
2022-12-15T02:49:28.449Z,119.03
2022-12-15T02:51:55.029Z,129.45
2022-12-15T02:54:35.469Z,119.82
2022-12-15T02:57:20.343Z,122.15
2022-12-15T03:00:06.862Z,115.50
2022-12-15T03:02:37.692Z,122.90
2022-12-15T03:05:05.053Z,125.78
2022-12-15T03:07:33.016Z,123.90
2022-12-15T03:10:03.094Z,127.30
2022-12-15T03:12:29.738Z,123.90
2022-12-15T03:14:57.181Z,132.20
2022-12-15T03:17:24.192Z,133.70
2022-12-15T03:19:50.917Z,123.53
2022-12-15T03:22:17.659Z,116.40
2022-12-15T03:24:44.315Z,119.38
2022-12-15T03:27:10.995Z,118.20
2022-12-15T03:29:37.918Z,122.75
2022-12-15T03:32:04.944Z,121.05
2022-12-15T03:34:31.670Z,128.82
2022-12-15T03:36:59.286Z,125.68
2022-12-15T03:39:25.927Z,129.93
2022-12-15T03:41:52.681Z,132.23
2022-12-15T03:44:19.318Z,133.40
2022-12-15T03:46:46.058Z,122.93
2022-12-15T03:49:12.788Z,123.53
2022-12-15T03:51:39.454Z,125.13
2022-12-15T03:54:07.367Z,114.32
2022-12-15T03:56:34.057Z,122.18
2022-12-15T03:59:00.808Z,134.15
2022-12-15T04:01:31.065Z,140.82
2022-12-15T04:04:01.286Z,132.73
2022-12-15T04:06:29.674Z,132.02
2022-12-15T04:08:56.313Z,131.13
2022-12-15T04:11:22.931Z,120.30
2022-12-15T04:13:49.523Z,135.40
2022-12-15T04:16:19.837Z,129.15
2022-12-15T04:19:07.767Z,126.30
2022-12-15T04:21:34.395Z,133.27
2022-12-15T04:24:19.598Z,156.80
2022-12-15T04:27:04.724Z,158.15
2022-12-15T04:29:50.006Z,138.43
2022-12-15T04:32:35.284Z,138.40
2022-12-15T04:35:20.663Z,136.88
2022-12-15T04:38:05.825Z,137.80
2022-12-15T04:40:51.124Z,129.20
2022-12-15T04:43:36.542Z,142.35
2022-12-15T04:46:21.919Z,130.45
2022-12-15T04:49:10.357Z,134.15
2022-12-15T04:51:55.655Z,121.07
2022-12-15T04:54:40.733Z,126.38
2022-12-15T04:57:25.880Z,126.75
2022-12-15T05:00:11.254Z,137.13
2022-12-15T05:02:56.529Z,119.80
2022-12-15T05:05:41.685Z,123.43
2022-12-15T05:08:26.832Z,121.38
2022-12-15T05:11:12.217Z,117.95
2022-12-15T05:13:57.686Z,128.80
2022-12-15T05:16:42.741Z,128.38
2022-12-15T05:19:28.092Z,132.63
2022-12-15T05:22:13.082Z,133.95
2022-12-15T05:24:58.435Z,130.45
2022-12-15T05:27:43.667Z,134.90
2022-12-15T05:30:29.261Z,127.82
2022-12-15T05:32:55.911Z,137.98
2022-12-15T05:35:23.211Z,136.40
2022-12-15T05:37:49.954Z,137.35
2022-12-15T05:40:16.642Z,139.93
2022-12-15T05:42:43.251Z,129.40
2022-12-15T05:45:19.258Z,128.85
2022-12-15T05:47:51.467Z,136.98
2022-12-15T05:50:18.543Z,134.23
2022-12-15T05:52:49.294Z,133.70
2022-12-15T05:55:17.085Z,125.65
2022-12-15T05:57:43.746Z,124.88
2022-12-15T06:00:11.005Z,131.27
2022-12-15T06:02:40.454Z,128.95
2022-12-15T06:05:07.824Z,127.13
2022-12-15T06:07:34.518Z,126.82
2022-12-15T06:10:01.438Z,126.32
2022-12-15T06:12:29.037Z,128.60
2022-12-15T06:14:55.733Z,128.98
2022-12-15T06:17:22.447Z,129.23
2022-12-15T06:19:51.368Z,126.78
2022-12-15T06:22:18.071Z,130.70
2022-12-15T06:24:44.724Z,135.57
2022-12-15T06:27:11.343Z,132.02
2022-12-15T06:29:37.966Z,120.47
2022-12-15T06:32:04.991Z,123.70
2022-12-15T06:34:31.651Z,129.60
2022-12-15T06:36:58.326Z,141.30
2022-12-15T06:39:25.057Z,131.25
2022-12-15T06:41:51.727Z,134.00
2022-12-15T06:44:18.402Z,134.27
2022-12-15T06:46:46.571Z,135.65
2022-12-15T06:49:13.781Z,129.63
2022-12-15T06:51:41.485Z,141.02
2022-12-15T06:54:11.186Z,122.45
2022-12-15T06:56:38.982Z,120.43
2022-12-15T06:59:07.561Z,118.15
2022-12-15T07:01:35.001Z,127.45
2022-12-15T07:04:04.879Z,126.72
2022-12-15T07:06:37.522Z,115.93
2022-12-15T07:09:07.491Z,123.80
2022-12-15T07:11:35.254Z,116.82
2022-12-15T07:14:01.983Z,131.98
2022-12-15T07:16:28.814Z,126.90
2022-12-15T07:18:55.499Z,119.15
2022-12-15T07:21:22.145Z,134.13
2022-12-15T07:23:57.317Z,133.45
2022-12-15T07:26:25.130Z,122.57
2022-12-15T07:28:53.945Z,123.15
2022-12-15T07:31:21.502Z,119.40
2022-12-15T07:33:48.466Z,108.95
2022-12-15T07:36:15.709Z,111.53
2022-12-15T07:38:42.674Z,124.65
2022-12-15T07:41:09.940Z,113.05
2022-12-15T07:43:37.586Z,131.13
2022-12-15T07:46:05.336Z,121.45
2022-12-15T07:48:32.854Z,137.30
2022-12-15T07:51:09.659Z,126.32
2022-12-15T07:53:39.910Z,136.70
2022-12-15T07:56:09.346Z,133.95
2022-12-15T07:58:37.177Z,124.60
2022-12-15T08:01:10.504Z,119.85
2022-12-15T08:03:38.733Z,132.80
2022-12-15T08:06:07.888Z,138.52
2022-12-15T08:08:37.705Z,127.65
2022-12-15T08:11:09.611Z,134.15
2022-12-15T08:14:01.926Z,130.27
2022-12-15T08:16:24.703Z,121.47
2022-12-15T08:18:51.544Z,129.25
2022-12-15T08:21:18.624Z,143.13
2022-12-15T08:23:45.338Z,136.60
2022-12-15T08:26:14.514Z,130.80
2022-12-15T08:28:42.150Z,133.75
2022-12-15T08:31:11.508Z,124.57
2022-12-15T08:33:39.033Z,125.95
2022-12-15T08:36:09.151Z,137.48
2022-12-15T08:38:38.618Z,131.82
2022-12-15T08:41:10.514Z,130.55
2022-12-15T08:43:42.548Z,126.05
2022-12-15T08:46:13.093Z,138.05
2022-12-15T08:48:40.147Z,134.65
2022-12-15T08:51:07.996Z,142.45
2022-12-15T08:53:34.645Z,141.88
2022-12-15T08:56:06.789Z,146.70
2022-12-15T08:58:33.920Z,138.07
2022-12-15T09:01:06.700Z,133.85
2022-12-15T09:03:35.397Z,137.40
2022-12-15T09:06:07.418Z,135.50
2022-12-15T09:08:34.997Z,134.98
2022-12-15T09:11:02.048Z,142.90
2022-12-15T09:13:30.021Z,142.98
2022-12-15T09:16:10.785Z,149.10
2022-12-15T09:18:38.247Z,131.10
2022-12-15T09:21:07.367Z,131.80
2022-12-15T09:23:36.237Z,135.95
2022-12-15T09:26:17.284Z,133.60
2022-12-15T09:28:44.378Z,126.47
2022-12-15T09:31:22.007Z,131.18
2022-12-15T09:33:50.733Z,127.45
2022-12-15T09:36:17.870Z,138.70
2022-12-15T09:38:44.864Z,138.15
2022-12-15T09:41:14.969Z,141.43
2022-12-15T09:43:47.404Z,143.60
2022-12-15T09:46:28.297Z,142.98
2022-12-15T09:49:01.840Z,135.13
2022-12-15T09:51:47.206Z,138.85
2022-12-15T09:54:13.883Z,138.63
2022-12-15T09:56:53.484Z,144.98
2022-12-15T09:59:40.730Z,142.20
2022-12-15T10:02:17.915Z,137.20
2022-12-15T10:05:06.277Z,138.35
2022-12-15T10:07:39.728Z,141.55
2022-12-15T10:10:22.633Z,139.20
2022-12-15T10:13:01.807Z,141.60
2022-12-15T10:15:45.595Z,154.27
2022-12-15T10:18:25.437Z,149.05
2022-12-15T10:20:54.256Z,144.23
2022-12-15T10:23:21.528Z,153.23
2022-12-15T10:25:58.165Z,153.05
2022-12-15T10:28:39.711Z,150.23
2022-12-15T10:31:30.080Z,143.30
2022-12-15T10:34:11.468Z,145.90
2022-12-15T10:36:38.422Z,144.15
2022-12-15T10:39:05.037Z,149.32
2022-12-15T10:41:33.693Z,147.05
2022-12-15T10:44:02.628Z,148.68
2022-12-15T10:46:30.702Z,148.43
2022-12-15T10:49:24.170Z,158.65
2022-12-15T10:51:57.613Z,156.98
2022-12-15T10:54:30.674Z,152.73
2022-12-15T10:56:59.413Z,156.55
2022-12-15T10:59:33.561Z,155.27
2022-12-15T11:05:16.284Z,166.30
2022-12-15T11:08:16.577Z,163.20
2022-12-15T11:11:16.483Z,183.18
2022-12-15T11:14:10.910Z,186.88
2022-12-15T11:16:45.589Z,173.50
2022-12-15T11:19:28.010Z,169.55
2022-12-15T11:22:01.301Z,166.13
2022-12-15T11:24:38.447Z,175.27
2022-12-15T11:27:30.262Z,177.18
2022-12-15T11:30:16.840Z,183.20
2022-12-15T11:32:48.929Z,173.27
2022-12-15T11:35:54.329Z,170.68
2022-12-15T11:38:34.025Z,183.23
2022-12-15T11:41:29.793Z,175.27
2022-12-15T11:44:06.643Z,181.40
2022-12-15T11:47:13.951Z,164.27
2022-12-15T11:50:06.717Z,169.18
2022-12-15T11:52:53.004Z,160.55
2022-12-15T11:55:47.030Z,157.15
2022-12-15T11:58:38.046Z,161.23
2022-12-15T12:01:34.114Z,163.90
2022-12-15T12:04:19.791Z,169.65
2022-12-15T12:07:11.224Z,176.40
2022-12-15T12:09:53.225Z,179.25
2022-12-15T12:12:26.484Z,164.65
2022-12-15T12:15:37.130Z,162.07
2022-12-15T12:18:36.264Z,161.90
2022-12-15T12:21:10.706Z,156.85
2022-12-15T12:23:45.365Z,167.30
2022-12-15T12:26:42.335Z,161.52
2022-12-15T12:29:18.793Z,174.63
2022-12-15T12:31:51.679Z,165.80
2022-12-15T12:34:25.867Z,174.27
2022-12-15T12:36:55.224Z,164.40
2022-12-15T12:39:25.717Z,165.82
2022-12-15T12:41:58.629Z,168.32
2022-12-15T12:44:25.218Z,164.35
2022-12-15T12:46:55.687Z,173.65
2022-12-15T12:49:50.292Z,177.63
2022-12-15T12:52:22.731Z,159.85
2022-12-15T12:54:57.347Z,167.40
2022-12-15T12:57:44.137Z,168.70
2022-12-15T13:02:46.598Z,160.88
2022-12-15T13:05:22.713Z,165.18
2022-12-15T13:07:57.638Z,165.15
2022-12-15T13:10:25.560Z,162.85
2022-12-15T13:12:59.480Z,157.80
2022-12-15T13:15:43.314Z,157.35
2022-12-15T13:18:15.464Z,171.80
2022-12-15T13:20:43.876Z,159.45
2022-12-15T13:23:20.014Z,159.52
2022-12-15T13:26:02.253Z,160.82
2022-12-15T13:28:34.906Z,166.00
2022-12-15T13:31:20.930Z,165.65
2022-12-15T13:33:50.750Z,162.63
2022-12-15T13:36:39.305Z,167.88
2022-12-15T13:39:12.435Z,175.02
2022-12-15T13:44:54.943Z,171.55
2022-12-15T13:47:30.271Z,168.75
2022-12-15T13:50:02.093Z,160.75
2022-12-15T13:53:16.710Z,163.30
2022-12-15T13:55:28.017Z,158.05
2022-12-15T13:58:00.644Z,161.27
2022-12-15T14:00:27.396Z,162.90
2022-12-15T14:03:10.377Z,158.07
2022-12-15T14:05:39.134Z,168.48
2022-12-15T14:08:15.876Z,175.15
2022-12-15T14:10:44.636Z,162.18
2022-12-15T14:13:16.205Z,156.95
2022-12-15T14:15:47.559Z,172.85
2022-12-15T14:18:27.321Z,163.40
2022-12-15T14:20:54.769Z,163.68
2022-12-15T14:23:23.998Z,161.55
2022-12-15T14:25:56.066Z,164.80
2022-12-15T14:28:30.230Z,161.90
2022-12-15T14:31:01.218Z,167.52
2022-12-15T14:33:29.916Z,160.20
2022-12-15T14:35:58.834Z,159.77
2022-12-15T14:39:15.075Z,163.02
2022-12-15T14:41:48.988Z,171.10
2022-12-15T14:44:31.692Z,172.57
2022-12-15T14:47:08.409Z,165.82
2022-12-15T14:49:45.449Z,176.18
2022-12-15T14:52:30.920Z,163.02
2022-12-15T14:55:00.001Z,164.23
2022-12-15T14:57:45.672Z,160.45
2022-12-15T15:00:28.409Z,167.98
2022-12-15T15:05:59.477Z,168.80
2022-12-15T15:08:26.274Z,164.05
2022-12-15T15:10:55.934Z,175.48
2022-12-15T15:13:35.966Z,163.13
2022-12-15T15:16:14.027Z,170.50
2022-12-15T15:18:42.875Z,165.38
2022-12-15T15:21:17.016Z,155.38
2022-12-15T15:24:17.436Z,164.73
2022-12-15T15:26:44.163Z,163.68
2022-12-15T15:29:32.623Z,162.02
2022-12-15T15:32:16.553Z,172.30
2022-12-15T15:34:45.081Z,169.43
2022-12-15T15:37:20.455Z,153.63
2022-12-15T15:39:51.307Z,156.77
2022-12-15T15:42:18.066Z,154.32
2022-12-15T15:44:45.102Z,154.40
2022-12-15T15:47:38.087Z,156.55
2022-12-15T15:50:05.244Z,168.60
2022-12-15T15:52:32.108Z,169.45
2022-12-15T15:54:59.418Z,161.23
2022-12-15T15:57:28.327Z,154.27
2022-12-15T15:59:55.027Z,165.20
2022-12-15T16:02:22.534Z,161.05
2022-12-15T16:04:49.373Z,158.15
2022-12-15T16:07:22.600Z,154.18
2022-12-15T16:09:49.822Z,172.40
2022-12-15T16:12:36.083Z,159.88
2022-12-15T16:15:02.811Z,171.30
2022-12-15T16:17:29.451Z,172.20
2022-12-15T16:19:56.301Z,158.27
2022-12-15T16:22:23.123Z,157.10
2022-12-15T16:24:49.864Z,156.20
2022-12-15T16:27:16.626Z,164.02
2022-12-15T16:29:44.438Z,167.05
2022-12-15T16:32:12.486Z,163.52
2022-12-15T16:34:39.254Z,164.65
2022-12-15T16:37:06.667Z,167.57
2022-12-15T16:39:35.242Z,160.95
2022-12-15T16:42:03.071Z,159.35
2022-12-15T16:44:30.250Z,170.40
2022-12-15T16:46:57.574Z,159.25
2022-12-15T16:49:24.872Z,153.85
2022-12-15T16:51:53.544Z,149.30
2022-12-15T16:54:26.336Z,164.93
2022-12-15T16:56:54.446Z,167.00
2022-12-15T16:59:34.897Z,158.50
2022-12-15T17:02:03.066Z,165.98
2022-12-15T17:04:29.926Z,163.02
2022-12-15T17:06:56.581Z,161.73
2022-12-15T17:09:26.666Z,157.98
2022-12-15T17:11:53.588Z,165.68
2022-12-15T17:14:20.251Z,169.98
2022-12-15T17:16:46.914Z,168.00
2022-12-15T17:19:19.118Z,162.13
2022-12-15T17:21:50.730Z,151.25
2022-12-15T17:24:20.491Z,155.73
2022-12-15T17:26:47.838Z,159.63
2022-12-15T17:29:21.314Z,158.77
2022-12-15T17:31:48.089Z,152.40
2022-12-15T17:34:26.159Z,158.18
2022-12-15T17:36:53.535Z,158.20
2022-12-15T17:39:21.867Z,150.93
2022-12-15T17:41:59.809Z,166.55
2022-12-15T17:44:38.174Z,154.70
2022-12-15T17:47:10.173Z,155.20
2022-12-15T17:49:38.606Z,150.00
2022-12-15T17:52:11.697Z,159.68
2022-12-15T17:54:38.352Z,153.82
2022-12-15T17:57:05.001Z,160.15
2022-12-15T17:59:32.376Z,153.10
2022-12-15T18:01:59.168Z,157.65
2022-12-15T18:04:25.985Z,159.27
2022-12-15T18:06:59.569Z,158.68
2022-12-15T18:09:28.255Z,155.07
2022-12-15T18:11:54.977Z,152.90
2022-12-15T18:14:23.107Z,163.85
2022-12-15T18:16:49.869Z,158.38
2022-12-15T18:19:16.550Z,153.80
2022-12-15T18:21:43.210Z,167.25
2022-12-15T18:24:15.450Z,154.60
2022-12-15T18:26:42.069Z,168.65
2022-12-15T18:29:19.726Z,154.13
2022-12-15T18:31:48.410Z,162.35
2022-12-15T18:34:21.301Z,164.00
2022-12-15T18:36:48.460Z,154.07
2022-12-15T18:39:19.620Z,156.18
2022-12-15T18:41:46.952Z,166.82
2022-12-15T18:44:22.093Z,156.05
2022-12-15T18:46:50.218Z,158.65
2022-12-15T18:49:17.781Z,156.23
2022-12-15T18:51:47.350Z,161.23
2022-12-15T18:54:22.214Z,159.15
2022-12-15T18:56:49.484Z,161.63
2022-12-15T18:59:17.678Z,153.30
2022-12-15T19:01:46.272Z,153.20
2022-12-15T19:04:13.419Z,152.43
2022-12-15T19:06:41.041Z,166.23
2022-12-15T19:09:15.613Z,148.23
2022-12-15T19:12:03.686Z,151.60
2022-12-15T19:14:42.906Z,157.95
2022-12-15T19:17:54.687Z,151.48
2022-12-15T19:20:40.367Z,145.77
2022-12-15T19:23:07.178Z,154.32
2022-12-15T19:25:34.868Z,152.35
2022-12-15T19:28:01.893Z,150.60
2022-12-15T19:30:38.501Z,168.38
2022-12-15T19:33:10.369Z,155.60
2022-12-15T19:35:38.710Z,161.30
2022-12-15T19:38:06.370Z,164.90
2022-12-15T19:40:35.050Z,171.18
2022-12-15T19:43:03.259Z,156.07
2022-12-15T19:45:31.680Z,163.43
2022-12-15T19:47:59.251Z,161.55
2022-12-15T19:50:30.444Z,155.27
2022-12-15T19:53:00.903Z,158.18
2022-12-15T19:55:35.795Z,149.73
2022-12-15T19:58:28.041Z,171.32
2022-12-15T20:00:57.297Z,153.77
2022-12-15T20:03:27.999Z,168.07
2022-12-15T20:05:56.115Z,159.65
2022-12-15T20:08:26.002Z,162.20
2022-12-15T20:10:54.037Z,153.43
2022-12-15T20:13:22.312Z,155.32
2022-12-15T20:15:49.067Z,164.98
2022-12-15T20:18:16.992Z,162.00
2022-12-15T20:20:47.299Z,161.45
2022-12-15T20:23:21.000Z,152.55
2022-12-15T20:25:47.883Z,174.15
2022-12-15T20:28:21.997Z,162.02
2022-12-15T20:30:49.776Z,150.35
2022-12-15T20:33:17.173Z,153.10
2022-12-15T20:35:46.267Z,159.85
2022-12-15T20:38:29.083Z,150.57
2022-12-15T20:40:56.523Z,149.40
2022-12-15T20:43:24.544Z,152.85
2022-12-15T20:46:00.353Z,159.55
2022-12-15T20:48:27.218Z,165.35
2022-12-15T20:50:53.882Z,169.88
2022-12-15T20:53:24.763Z,160.40
2022-12-15T20:55:52.666Z,170.85
2022-12-15T20:58:20.472Z,158.32
2022-12-15T21:00:48.681Z,159.63
2022-12-15T21:03:18.218Z,153.73
2022-12-15T21:05:45.867Z,165.95
2022-12-15T21:08:32.254Z,156.52
2022-12-15T21:11:16.920Z,150.13
2022-12-15T21:13:44.642Z,174.93
2022-12-15T21:16:21.154Z,165.60
2022-12-15T21:19:22.672Z,157.35
2022-12-15T21:21:42.162Z,153.93
2022-12-15T21:24:28.715Z,147.75
2022-12-15T21:26:55.852Z,159.90
2022-12-15T21:29:25.351Z,159.98
2022-12-15T21:31:52.097Z,152.93
2022-12-15T21:34:18.711Z,161.57
2022-12-15T21:36:49.871Z,154.65
2022-12-15T21:39:34.240Z,163.88
2022-12-15T21:42:05.882Z,150.05
2022-12-15T21:44:32.512Z,154.75
2022-12-15T21:46:59.278Z,151.07
2022-12-15T21:49:26.362Z,147.20
2022-12-15T21:52:00.956Z,148.20
2022-12-15T21:54:33.231Z,151.52
2022-12-15T21:57:01.013Z,163.93
2022-12-15T21:59:30.318Z,151.00
2022-12-15T22:01:57.417Z,164.13
2022-12-15T22:04:28.484Z,164.35
2022-12-15T22:06:55.246Z,157.80
2022-12-15T22:09:21.927Z,159.35
2022-12-15T22:11:54.166Z,150.48
2022-12-15T22:14:32.139Z,156.63
2022-12-15T22:17:00.513Z,146.40
2022-12-15T22:19:27.640Z,156.30
2022-12-15T22:21:54.300Z,157.93
2022-12-15T22:24:21.904Z,147.18
2022-12-15T22:26:48.719Z,160.68
2022-12-15T22:29:22.266Z,161.55
2022-12-15T22:31:50.498Z,152.65
2022-12-15T22:34:22.009Z,164.23
2022-12-15T22:36:49.608Z,145.20
2022-12-15T22:39:18.848Z,167.73
2022-12-15T22:41:48.880Z,165.82
2022-12-15T22:44:41.865Z,158.18
2022-12-15T22:47:10.883Z,155.10
2022-12-15T22:49:39.427Z,163.38
2022-12-15T22:52:16.916Z,161.55
2022-12-15T22:54:46.025Z,150.10
2022-12-15T22:57:28.312Z,148.60
2022-12-15T23:00:08.807Z,143.77
2022-12-15T23:02:40.752Z,148.63
2022-12-15T23:05:08.178Z,153.32
2022-12-15T23:07:35.647Z,156.65
2022-12-15T23:10:20.993Z,148.23
2022-12-15T23:12:47.614Z,156.38
2022-12-15T23:15:32.864Z,150.13
2022-12-15T23:17:59.502Z,149.02
2022-12-15T23:20:26.211Z,147.63
2022-12-15T23:22:52.931Z,148.30
2022-12-15T23:25:21.539Z,147.85
2022-12-15T23:27:48.802Z,159.75
2022-12-15T23:30:16.031Z,151.30
2022-12-15T23:32:42.642Z,161.05
2022-12-15T23:35:10.112Z,148.57
2022-12-15T23:37:36.742Z,160.57
2022-12-15T23:40:05.462Z,157.93
2022-12-15T23:42:32.333Z,162.40
2022-12-15T23:44:58.998Z,144.07
2022-12-15T23:47:25.770Z,156.60
2022-12-15T23:49:52.556Z,160.65
2022-12-15T23:52:20.232Z,163.88
2022-12-15T23:54:46.891Z,164.63
2022-12-15T23:57:13.579Z,165.77
2022-12-15T23:59:40.218Z,151.68
